Time;durP1;ratioP1;P1;durP2;ratioP2;P2;SDS_P1;SDS_P2;PMS_P1;PMS_P2;Temp;Humidity;BMP_temperature;BMP_pressure;BME280_temperature;BME280_humidity;BME280_pressure;Samples;Min_cycle;Max_cycle;Signal;HPM_P1;HPM_P2
2023/08/20 00:01:30;;;;;;;3.90;3.60;;;25.40;93.60;;;;;;4937620;29;20442;-91
2023/08/20 00:03:58;;;;;;;3.43;3.23;;;25.40;93.60;;;;;;4937353;29;20442;-91
2023/08/20 00:06:26;;;;;;;3.53;3.23;;;25.40;93.60;;;;;;4937279;29;20453;-91
2023/08/20 00:08:53;;;;;;;3.57;3.37;;;25.40;93.60;;;;;;4937424;29;20447;-92
2023/08/20 00:11:20;;;;;;;3.27;3.07;;;25.40;93.70;;;;;;4937120;28;20964;-91
2023/08/20 00:13:47;;;;;;;3.17;2.97;;;25.40;93.60;;;;;;4937070;29;20485;-91
2023/08/20 00:16:14;;;;;;;3.47;3.27;;;25.40;93.60;;;;;;4937199;29;20451;-90
2023/08/20 00:18:41;;;;;;;3.07;2.87;;;25.40;93.60;;;;;;4937441;28;20459;-91
2023/08/20 00:21:10;;;;;;;3.37;3.17;;;25.40;93.60;;;;;;4937028;29;20970;-90
2023/08/20 00:23:38;;;;;;;3.00;2.80;;;25.40;93.60;;;;;;4937093;29;20545;-91
2023/08/20 00:26:05;;;;;;;3.30;3.10;;;25.40;93.60;;;;;;4936976;29;20447;-90
2023/08/20 00:28:33;;;;;;;2.80;2.60;;;25.30;93.60;;;;;;4936821;29;20489;-90
2023/08/20 00:31:01;;;;;;;3.40;3.20;;;25.40;93.70;;;;;;4937013;29;20533;-91
2023/08/20 00:33:27;;;;;;;3.03;2.83;;;25.40;93.60;;;;;;4936881;29;21013;-90
2023/08/20 00:35:54;;;;;;;2.70;2.50;;;25.40;93.60;;;;;;4936925;29;20993;-90
2023/08/20 00:38:22;;;;;;;3.13;2.93;;;25.40;93.70;;;;;;4936913;28;20439;-91
2023/08/20 00:40:49;;;;;;;3.03;2.83;;;25.40;93.60;;;;;;4936712;29;20442;-91
2023/08/20 00:43:16;;;;;;;3.30;3.10;;;25.40;93.60;;;;;;4936865;29;20438;-90
2023/08/20 00:45:43;;;;;;;3.03;2.83;;;25.40;93.70;;;;;;4936249;29;20449;-91
2023/08/20 00:48:11;;;;;;;3.30;3.10;;;25.40;93.70;;;;;;4936677;29;20603;-91
2023/08/20 00:50:39;;;;;;;2.80;2.60;;;25.40;93.60;;;;;;4936535;29;20554;-90
2023/08/20 00:53:06;;;;;;;3.17;2.97;;;25.40;93.70;;;;;;4936652;29;20438;-91
2023/08/20 00:55:34;;;;;;;3.30;3.10;;;25.40;93.70;;;;;;4936725;29;20447;-91
2023/08/20 00:58:01;;;;;;;3.10;2.90;;;25.40;93.60;;;;;;4936527;29;20869;-91
2023/08/20 01:00:28;;;;;;;3.20;3.00;;;25.40;93.70;;;;;;4936665;28;20790;-91
2023/08/20 01:02:55;;;;;;;2.70;2.50;;;25.40;93.70;;;;;;4936339;29;20794;-91
2023/08/20 01:05:22;;;;;;;2.87;2.67;;;25.30;93.60;;;;;;4936789;28;20442;-90
2023/08/20 01:07:58;;;;;;;3.23;3.00;;;25.40;93.70;;;;;;4936345;29;20494;-91
2023/08/20 01:10:32;;;;;;;3.33;3.13;;;25.40;93.70;;;;;;4936405;29;20450;-91
2023/08/20 01:13:01;;;;;;;6.20;2.80;;;25.40;93.60;;;;;;4936472;29;20453;-90
2023/08/20 01:15:28;;;;;;;3.03;2.83;;;25.40;93.60;;;;;;4936309;29;20573;-90
2023/08/20 01:17:55;;;;;;;3.30;3.10;;;25.40;93.60;;;;;;4936251;29;20938;-91
2023/08/20 01:20:25;;;;;;;3.27;3.07;;;25.30;93.60;;;;;;4936254;28;20480;-91
2023/08/20 01:23:10;;;;;;;3.27;3.07;;;25.30;93.60;;;;;;4936221;29;20453;-90
2023/08/20 01:25:50;;;;;;;3.23;3.03;;;25.30;93.60;;;;;;4936253;29;20453;-90
2023/08/20 01:28:29;;;;;;;3.47;3.17;;;25.40;93.70;;;;;;4936118;29;20505;-90
2023/08/20 01:30:58;;;;;;;2.40;2.30;;;25.40;93.70;;;;;;4936130;29;20456;-91
2023/08/20 01:33:26;;;;;;;3.30;3.10;;;25.30;93.60;;;;;;4936134;29;20541;-90
2023/08/20 01:35:53;;;;;;;2.63;2.53;;;25.30;93.60;;;;;;4935974;29;20442;-90
2023/08/20 01:38:20;;;;;;;3.77;3.47;;;25.30;93.60;;;;;;4936071;29;20447;-91
2023/08/20 01:40:47;;;;;;;3.60;3.00;;;25.30;93.60;;;;;;4935947;29;20445;-91
2023/08/20 01:43:14;;;;;;;2.80;2.60;;;25.30;93.60;;;;;;4936122;28;20454;-91
2023/08/20 01:45:42;;;;;;;3.43;3.13;;;25.30;93.60;;;;;;4936024;28;20485;-90
2023/08/20 01:48:09;;;;;;;2.50;2.30;;;25.30;93.60;;;;;;4935973;29;20499;-91
2023/08/20 01:50:36;;;;;;;4.00;3.70;;;25.30;93.60;;;;;;4935864;29;20823;-91
2023/08/20 01:53:03;;;;;;;3.47;3.27;;;25.30;93.60;;;;;;4936055;29;20930;-91
2023/08/20 01:55:30;;;;;;;2.90;2.80;;;25.30;93.60;;;;;;4935963;29;20542;-91
2023/08/20 01:57:57;;;;;;;2.87;2.67;;;25.30;93.60;;;;;;4936407;29;20458;-91
2023/08/20 02:00:24;;;;;;;2.70;2.50;;;25.30;93.60;;;;;;4939723;29;20541;-90
2023/08/20 02:02:52;;;;;;;2.57;2.37;;;25.30;93.60;;;;;;4939493;29;20450;-91
2023/08/20 02:05:19;;;;;;;3.43;3.23;;;25.30;93.60;;;;;;4939828;28;20445;-90
2023/08/20 02:07:46;;;;;;;2.60;2.40;;;25.30;93.60;;;;;;4939532;29;21003;-90
2023/08/20 02:10:13;;;;;;;3.03;2.83;;;25.30;93.60;;;;;;4939441;29;20454;-91
2023/08/20 02:12:40;;;;;;;3.40;3.20;;;25.30;93.60;;;;;;4939608;29;20449;-91
2023/08/20 02:15:08;;;;;;;2.93;2.53;;;25.30;93.60;;;;;;4939117;29;20989;-91
2023/08/20 02:17:36;;;;;;;3.10;2.90;;;25.30;93.60;;;;;;4939617;28;20525;-91
2023/08/20 02:20:05;;;;;;;2.60;2.40;;;25.30;93.60;;;;;;4939221;29;20867;-90
2023/08/20 02:22:34;;;;;;;3.10;2.90;;;25.30;93.60;;;;;;4939210;29;20456;-91
2023/08/20 02:25:01;;;;;;;3.03;2.83;;;25.30;93.60;;;;;;4939319;29;20477;-90
2023/08/20 02:27:28;;;;;;;2.57;2.47;;;25.30;93.60;;;;;;4939324;29;20486;-90
2023/08/20 02:29:54;;;;;;;2.47;2.37;;;25.30;93.60;;;;;;4939122;29;20440;-91
2023/08/20 02:32:21;;;;;;;3.30;3.10;;;25.30;93.60;;;;;;4939067;29;20814;-91
2023/08/20 02:34:51;;;;;;;2.63;2.43;;;25.30;93.60;;;;;;4939089;29;20456;-91
2023/08/20 02:37:19;;;;;;;2.77;2.57;;;25.30;93.60;;;;;;4939176;29;20818;-91
2023/08/20 02:39:46;;;;;;;2.87;2.67;;;25.30;93.60;;;;;;4939207;28;20952;-90
2023/08/20 02:42:13;;;;;;;2.50;2.33;;;25.30;93.60;;;;;;4938931;29;20453;-90
2023/08/20 02:44:40;;;;;;;2.77;2.57;;;25.30;93.60;;;;;;4938919;29;20454;-91
2023/08/20 02:47:07;;;;;;;3.37;3.17;;;25.30;93.60;;;;;;4939081;28;20509;-91
2023/08/20 02:49:33;;;;;;;2.80;2.60;;;25.30;93.60;;;;;;4938687;29;20871;-91
2023/08/20 02:52:02;;;;;;;3.10;2.90;;;25.30;93.50;;;;;;4938737;29;20443;-91
2023/08/20 02:54:31;;;;;;;2.80;2.60;;;25.30;93.60;;;;;;4938769;29;20886;-91
2023/08/20 02:56:58;;;;;;;2.60;2.40;;;25.30;93.60;;;;;;4938854;29;20464;-91
2023/08/20 02:59:25;;;;;;;2.73;2.53;;;25.30;93.60;;;;;;4938659;29;20452;-91
2023/08/20 03:01:52;;;;;;;3.03;2.70;;;25.40;93.60;;;;;;4938597;29;20445;-91
2023/08/20 03:04:19;;;;;;;2.90;2.70;;;25.30;93.60;;;;;;4938813;28;20534;-90
2023/08/20 03:06:46;;;;;;;2.67;2.53;;;25.30;93.60;;;;;;4938898;28;20478;-92
2023/08/20 03:09:12;;;;;;;2.97;2.77;;;25.30;93.60;;;;;;4938046;29;20492;-90
2023/08/20 03:11:41;;;;;;;2.93;2.73;;;25.30;93.50;;;;;;4938440;29;20443;-91
2023/08/20 03:14:07;;;;;;;2.97;2.77;;;25.30;93.50;;;;;;4938248;28;20485;-90
2023/08/20 03:16:34;;;;;;;2.83;2.63;;;25.30;93.60;;;;;;4938494;29;20482;-91
2023/08/20 03:19:01;;;;;;;2.37;2.27;;;25.30;93.60;;;;;;4938627;28;20813;-90
2023/08/20 03:21:28;;;;;;;2.97;2.77;;;25.30;93.50;;;;;;4938335;29;20469;-91
2023/08/20 03:23:55;;;;;;;2.40;2.30;;;25.30;93.50;;;;;;4938170;29;20545;-91
2023/08/20 03:26:22;;;;;;;2.90;2.70;;;25.30;93.50;;;;;;4938156;29;20442;-91
2023/08/20 03:28:50;;;;;;;2.80;2.70;;;25.30;93.50;;;;;;4938195;28;20524;-90
2023/08/20 03:31:16;;;;;;;2.90;2.70;;;25.30;93.60;;;;;;4938088;29;20442;-91
2023/08/20 03:33:43;;;;;;;2.67;2.47;;;25.30;93.50;;;;;;4938038;29;20447;-91
2023/08/20 03:36:10;;;;;;;3.10;2.90;;;25.30;93.50;;;;;;4937990;29;20538;-91
2023/08/20 03:38:37;;;;;;;3.10;2.80;;;25.30;93.50;;;;;;4938104;29;20443;-90
2023/08/20 03:41:04;;;;;;;2.70;2.50;;;25.30;93.50;;;;;;4937915;29;20449;-91
2023/08/20 03:43:30;;;;;;;2.93;2.73;;;25.30;93.60;;;;;;4937757;29;20533;-91
2023/08/20 03:45:59;;;;;;;2.50;2.33;;;25.30;93.50;;;;;;4937884;29;20449;-91
2023/08/20 03:48:26;;;;;;;3.00;2.80;;;25.30;93.50;;;;;;4937767;29;21012;-91
2023/08/20 03:50:52;;;;;;;3.37;3.17;;;25.30;93.50;;;;;;4937568;29;20474;-90
2023/08/20 03:53:19;;;;;;;2.93;2.73;;;25.30;93.50;;;;;;4937667;29;20810;-90
2023/08/20 03:55:49;;;;;;;2.67;2.47;;;25.30;93.50;;;;;;4937663;29;20447;-91
2023/08/20 03:58:15;;;;;;;2.50;2.40;;;25.30;93.50;;;;;;4937659;28;20450;-91
2023/08/20 04:00:42;;;;;;;3.03;2.83;;;25.30;93.50;;;;;;4937426;29;20451;-91
2023/08/20 04:03:10;;;;;;;2.67;2.50;;;25.30;93.50;;;;;;4937427;29;20442;-90
2023/08/20 04:05:37;;;;;;;2.47;2.27;;;25.30;93.50;;;;;;4937515;29;20493;-91
2023/08/20 04:08:05;;;;;;;2.70;2.50;;;25.30;93.90;;;;;;4937556;28;21015;-91
2023/08/20 04:10:32;;;;;;;2.90;2.70;;;25.30;93.50;;;;;;4937409;29;20444;-90
2023/08/20 04:12:59;;;;;;;2.90;2.70;;;25.30;93.50;;;;;;4937469;29;20454;-91
2023/08/20 04:15:26;;;;;;;2.40;2.30;;;25.30;93.50;;;;;;4937067;29;20481;-91
2023/08/20 04:17:53;;;;;;;3.40;3.10;;;25.30;93.50;;;;;;4937283;29;20456;-90
2023/08/20 04:20:21;;;;;;;2.57;2.40;;;25.30;93.70;;;;;;4936507;29;20522;-90
2023/08/20 04:22:48;;;;;;;3.13;2.93;;;25.30;93.50;;;;;;4937030;29;20446;-91
2023/08/20 04:25:15;;;;;;;2.90;2.70;;;25.30;93.50;;;;;;4937177;29;20449;-91
2023/08/20 04:27:42;;;;;;;2.53;2.43;;;25.30;93.50;;;;;;4937011;28;20443;-91
2023/08/20 04:30:10;;;;;;;2.60;2.50;;;25.30;93.50;;;;;;4936897;29;20453;-90
2023/08/20 04:32:37;;;;;;;3.23;3.00;;;25.30;93.50;;;;;;4937146;28;20502;-90
2023/08/20 04:35:04;;;;;;;3.03;2.83;;;25.30;93.50;;;;;;4937108;28;20457;-91
2023/08/20 04:37:32;;;;;;;3.50;3.20;;;25.20;93.50;;;;;;4936688;29;20446;-91
2023/08/20 04:39:59;;;;;;;3.00;2.80;;;25.30;93.90;;;;;;4936829;28;20454;-90
2023/08/20 04:42:26;;;;;;;2.77;2.57;;;25.30;93.50;;;;;;4936939;29;20521;-91
2023/08/20 04:44:52;;;;;;;2.83;2.63;;;25.30;93.50;;;;;;4936882;29;20446;-90
2023/08/20 04:47:20;;;;;;;3.07;2.80;;;25.20;93.50;;;;;;4936729;29;20449;-90
2023/08/20 04:49:46;;;;;;;3.10;2.90;;;25.20;93.50;;;;;;4936380;29;21069;-91
2023/08/20 04:52:13;;;;;;;2.93;2.73;;;25.30;93.50;;;;;;4936980;28;20459;-91
2023/08/20 04:54:41;;;;;;;3.13;2.93;;;25.30;93.50;;;;;;4936584;29;20789;-91
2023/08/20 04:57:08;;;;;;;2.53;2.40;;;25.30;93.50;;;;;;4936520;28;20965;-91
2023/08/20 04:59:35;;;;;;;3.47;3.17;;;25.30;93.50;;;;;;4936544;29;20459;-90
2023/08/20 05:02:02;;;;;;;3.57;3.37;;;25.30;93.50;;;;;;4936457;29;20537;-90
2023/08/20 05:04:29;;;;;;;2.77;2.57;;;25.30;93.50;;;;;;4936467;29;20460;-90
2023/08/20 05:06:56;;;;;;;3.10;2.90;;;25.20;93.50;;;;;;4936739;29;20803;-90
2023/08/20 05:09:23;;;;;;;3.30;3.10;;;25.30;93.50;;;;;;4936288;29;20490;-90
2023/08/20 05:11:51;;;;;;;3.47;3.27;;;25.20;93.50;;;;;;4936218;29;20451;-91
2023/08/20 05:14:17;;;;;;;3.20;3.00;;;25.20;93.50;;;;;;4936291;28;20475;-91
2023/08/20 05:16:44;;;;;;;2.80;2.60;;;25.20;93.50;;;;;;4936434;29;20455;-90
2023/08/20 05:19:11;;;;;;;3.00;2.80;;;25.20;93.50;;;;;;4936535;28;20450;-91
2023/08/20 05:21:38;;;;;;;3.00;2.80;;;25.30;93.50;;;;;;4936073;29;20561;-91
2023/08/20 05:24:06;;;;;;;2.67;2.47;;;25.20;93.50;;;;;;4936416;29;20446;-90
2023/08/20 05:26:32;;;;;;;3.13;2.83;;;25.20;93.50;;;;;;4936308;28;20447;-92
2023/08/20 05:29:01;;;;;;;3.00;2.80;;;25.20;93.50;;;;;;4936128;29;21012;-90
2023/08/20 05:31:28;;;;;;;2.87;2.67;;;25.20;93.50;;;;;;4936276;28;20453;-91
2023/08/20 05:33:54;;;;;;;3.90;3.60;;;25.20;93.50;;;;;;4936077;29;20506;-91
2023/08/20 05:36:21;;;;;;;2.80;2.60;;;25.20;93.90;;;;;;4936006;29;20804;-91
2023/08/20 05:38:48;;;;;;;3.10;2.90;;;25.20;93.50;;;;;;4935966;29;20445;-91
2023/08/20 05:41:15;;;;;;;3.10;2.90;;;25.20;93.50;;;;;;4936134;29;20446;-89
2023/08/20 05:43:42;;;;;;;3.57;3.27;;;25.20;93.50;;;;;;4936182;29;20529;-88
2023/08/20 05:46:10;;;;;;;3.80;3.37;;;25.20;93.50;;;;;;4936103;29;20450;-91
2023/08/20 05:48:37;;;;;;;3.30;3.10;;;25.20;93.40;;;;;;4935898;29;20514;-89
2023/08/20 05:51:03;;;;;;;3.67;3.37;;;25.20;93.40;;;;;;4935893;29;20495;-89
2023/08/20 05:53:30;;;;;;;2.87;2.67;;;25.20;93.30;;;;;;4935902;29;20963;-89
2023/08/20 05:55:57;;;;;;;3.20;3.00;;;25.20;93.30;;;;;;4935824;29;20442;-89
2023/08/20 05:58:24;;;;;;;3.30;3.10;;;25.20;93.30;;;;;;4935967;28;20450;-90
2023/08/20 06:00:51;;;;;;;3.40;3.20;;;25.20;93.30;;;;;;4935735;29;20458;-89
2023/08/20 06:03:19;;;;;;;3.33;3.13;;;25.20;93.30;;;;;;4935895;29;20454;-88
2023/08/20 06:05:46;;;;;;;5.40;4.70;;;25.20;93.30;;;;;;4935802;29;20443;-90
2023/08/20 06:08:12;;;;;;;19.57;11.77;;;25.20;93.30;;;;;;4935672;29;21022;-90
2023/08/20 06:10:39;;;;;;;24.73;16.50;;;25.10;93.90;;;;;;4935537;29;20816;-90
2023/08/20 06:13:06;;;;;;;27.10;17.07;;;25.10;94.40;;;;;;4935524;29;20441;-89
2023/08/20 06:15:33;;;;;;;29.53;19.23;;;25.10;94.80;;;;;;4935824;29;20870;-90
2023/08/20 06:18:00;;;;;;;31.47;19.73;;;25.10;95.10;;;;;;4935767;29;20540;-90
2023/08/20 06:20:28;;;;;;;29.30;19.10;;;25.10;95.30;;;;;;4935497;29;20466;-89
2023/08/20 06:22:54;;;;;;;29.53;20.77;;;25.10;95.40;;;;;;4935510;29;20447;-89
2023/08/20 06:25:21;;;;;;;26.83;20.10;;;25.10;95.60;;;;;;4935534;29;20489;-90
2023/08/20 06:27:48;;;;;;;27.10;20.53;;;25.10;95.70;;;;;;4935573;29;20443;-89
2023/08/20 06:30:15;;;;;;;32.43;22.03;;;25.00;95.80;;;;;;4935406;29;20494;-89
2023/08/20 06:32:42;;;;;;;29.40;20.03;;;25.00;95.90;;;;;;4935722;29;20941;-89
2023/08/20 06:35:10;;;;;;;26.20;19.60;;;25.00;95.90;;;;;;4935624;29;20447;-89
2023/08/20 06:37:40;;;;;;;23.33;18.87;;;25.00;95.90;;;;;;4935573;29;20453;-88
2023/08/20 06:40:09;;;;;;;27.50;20.13;;;25.00;95.90;;;;;;4935334;29;20449;-91
2023/08/20 06:42:35;;;;;;;25.17;20.83;;;25.00;96.10;;;;;;4935482;29;20937;-88
2023/08/20 06:45:02;;;;;;;22.37;18.20;;;25.00;96.20;;;;;;4937524;29;20537;-89
2023/08/20 06:47:29;;;;;;;22.33;18.13;;;25.00;95.90;;;;;;4938929;29;20446;-89
2023/08/20 06:49:56;;;;;;;13.73;12.33;;;25.00;96.10;;;;;;4938774;29;20496;-88
2023/08/20 06:52:22;;;;;;;22.60;17.40;;;25.00;95.50;;;;;;4938860;29;20449;-89
2023/08/20 06:54:51;;;;;;;20.90;16.90;;;25.00;95.70;;;;;;4938679;29;20450;-88
2023/08/20 06:57:17;;;;;;;20.90;18.80;;;25.00;95.80;;;;;;4938645;29;20456;-88
2023/08/20 06:59:44;;;;;;;11.53;10.30;;;25.00;95.70;;;;;;4938667;29;20449;-89
2023/08/20 07:02:12;;;;;;;19.07;15.33;;;25.00;95.30;;;;;;4938578;29;20453;-89
2023/08/20 07:04:39;;;;;;;27.23;23.40;;;25.00;95.30;;;;;;4938592;29;20446;-92
2023/08/20 07:07:06;;;;;;;32.47;26.60;;;25.00;95.90;;;;;;4939091;29;20442;-90
2023/08/20 07:09:32;;;;;;;30.03;26.70;;;25.00;96.50;;;;;;4938566;29;20496;-90
2023/08/20 07:12:01;;;;;;;31.23;27.00;;;25.00;96.70;;;;;;4938530;29;20923;-90
2023/08/20 07:14:28;;;;;;;30.07;26.87;;;25.10;97.00;;;;;;4938306;29;20546;-90
2023/08/20 07:16:55;;;;;;;43.83;25.00;;;25.00;97.00;;;;;;4938388;29;20454;-91
2023/08/20 07:19:22;;;;;;;30.97;27.53;;;25.00;97.50;;;;;;4938452;29;20460;-91
2023/08/20 07:21:49;;;;;;;32.40;25.03;;;25.00;97.20;;;;;;4938252;29;20446;-90
2023/08/20 07:24:16;;;;;;;32.33;27.60;;;25.00;97.30;;;;;;4938273;29;20488;-90
2023/08/20 07:26:43;;;;;;;33.33;29.60;;;25.00;97.20;;;;;;4938517;29;20526;-90
2023/08/20 07:29:11;;;;;;;30.40;27.13;;;25.00;97.20;;;;;;4938451;29;20517;-91
2023/08/20 07:31:38;;;;;;;34.33;27.97;;;25.10;97.20;;;;;;4938297;29;20435;-90
2023/08/20 07:34:05;;;;;;;39.83;28.30;;;25.10;97.20;;;;;;4938045;29;20457;-90
2023/08/20 07:36:32;;;;;;;35.80;27.77;;;25.10;97.10;;;;;;4937934;29;20442;-90
2023/08/20 07:39:01;;;;;;;34.83;28.87;;;25.10;97.20;;;;;;4938087;29;20446;-91
2023/08/20 07:41:28;;;;;;;23.17;20.37;;;25.20;97.20;;;;;;4938005;29;20442;-90
2023/08/20 07:43:54;;;;;;;25.47;22.37;;;25.20;96.90;;;;;;4938036;29;20832;-91
2023/08/20 07:46:23;;;;;;;26.27;23.00;;;25.20;96.50;;;;;;4937945;29;20452;-90
2023/08/20 07:48:49;;;;;;;30.23;24.53;;;25.20;96.60;;;;;;4937750;29;20456;-91
2023/08/20 07:51:16;;;;;;;25.43;22.40;;;25.20;96.80;;;;;;4937775;29;20829;-89
2023/08/20 07:53:43;;;;;;;25.73;21.93;;;25.20;96.70;;;;;;4937721;29;20447;-92
2023/08/20 07:56:10;;;;;;;26.80;22.43;;;25.20;96.50;;;;;;4936761;29;20459;-89
2023/08/20 07:58:37;;;;;;;26.50;20.97;;;25.20;96.60;;;;;;4937437;29;20530;-90
2023/08/20 08:01:03;;;;;;;22.60;20.20;;;25.20;96.20;;;;;;4937564;29;20447;-91
2023/08/20 08:03:32;;;;;;;22.30;18.50;;;25.20;96.20;;;;;;4938029;29;20542;-93
2023/08/20 08:05:59;;;;;;;17.50;15.70;;;25.20;96.00;;;;;;4937412;28;20814;-92
2023/08/20 08:08:25;;;;;;;16.83;15.03;;;25.20;95.90;;;;;;4937580;29;20454;-92
2023/08/20 08:10:52;;;;;;;24.27;21.47;;;25.20;96.20;;;;;;4937809;29;20585;-93
2023/08/20 08:13:21;;;;;;;24.03;21.47;;;25.20;95.80;;;;;;4937862;29;20449;-94
2023/08/20 08:15:48;;;;;;;19.43;17.47;;;25.20;95.90;;;;;;4929416;29;20458;-95
2023/08/20 08:18:15;;;;;;;17.00;15.30;;;25.20;95.90;;;;;;4918725;29;20519;-94
2023/08/20 08:20:43;;;;;;;16.53;14.83;;;25.20;96.10;;;;;;4918447;29;20471;-92
2023/08/20 08:23:10;;;;;;;15.83;14.13;;;25.20;95.70;;;;;;4918902;29;20442;-94
2023/08/20 08:25:38;;;;;;;16.50;14.90;;;25.20;95.60;;;;;;4918475;29;21011;-91
2023/08/20 08:28:05;;;;;;;15.87;14.20;;;25.20;95.50;;;;;;4918230;29;20440;-91
2023/08/20 08:30:32;;;;;;;14.27;12.90;;;25.20;95.40;;;;;;4917993;29;20479;-93
2023/08/20 08:32:59;;;;;;;16.37;14.60;;;25.20;95.30;;;;;;4918150;29;20458;-93
2023/08/20 08:35:26;;;;;;;16.03;14.40;;;25.20;95.30;;;;;;4918090;29;20458;-93
2023/08/20 08:37:54;;;;;;;18.33;16.27;;;25.20;95.30;;;;;;4918173;29;20550;-92
2023/08/20 08:40:22;;;;;;;15.13;13.73;;;25.20;95.30;;;;;;4917969;29;20451;-94
2023/08/20 08:42:50;;;;;;;15.53;13.43;;;25.20;95.30;;;;;;4917867;29;20479;-91
2023/08/20 08:45:20;;;;;;;16.00;14.40;;;25.20;95.20;;;;;;4918051;29;20447;-92
2023/08/20 08:47:47;;;;;;;14.50;13.20;;;25.30;95.20;;;;;;4917728;29;20440;-89
2023/08/20 08:50:14;;;;;;;17.03;15.40;;;25.30;95.30;;;;;;4917570;29;20833;-93
2023/08/20 08:52:43;;;;;;;16.23;14.47;;;25.20;95.40;;;;;;4917626;29;20452;-88
2023/08/20 08:55:12;;;;;;;16.50;14.77;;;25.30;95.40;;;;;;4917540;29;20446;-89
2023/08/20 08:57:39;;;;;;;15.33;13.80;;;25.30;95.40;;;;;;4917868;29;20452;-92
2023/08/20 09:00:07;;;;;;;15.70;14.10;;;25.30;95.50;;;;;;4917136;29;20443;-89
2023/08/20 09:02:34;;;;;;;15.67;13.87;;;25.30;95.40;;;;;;4917533;29;20524;-89
2023/08/20 09:05:01;;;;;;;13.90;12.60;;;25.30;95.40;;;;;;4917382;29;20439;-89
2023/08/20 09:07:28;;;;;;;14.30;12.97;;;25.30;95.40;;;;;;4917176;29;20546;-89
2023/08/20 09:09:59;;;;;;;14.40;13.00;;;25.30;95.40;;;;;;4917305;29;20498;-90
2023/08/20 09:12:28;;;;;;;13.47;12.27;;;25.30;95.40;;;;;;4917370;29;20451;-93
2023/08/20 09:14:57;;;;;;;14.57;12.90;;;25.30;95.40;;;;;;4917216;29;20485;-89
2023/08/20 09:17:26;;;;;;;14.53;12.87;;;25.30;95.40;;;;;;4917376;29;20444;-93
2023/08/20 09:19:57;;;;;;;13.30;12.10;;;25.30;95.70;;;;;;4917071;29;20467;-89
2023/08/20 09:22:24;;;;;;;13.13;11.70;;;25.40;95.40;;;;;;4917245;29;20490;-89
2023/08/20 09:24:55;;;;;;;13.00;11.30;;;25.30;95.30;;;;;;4917282;29;20535;-89
2023/08/20 09:27:22;;;;;;;13.07;11.93;;;25.40;95.30;;;;;;4917394;29;20452;-89
2023/08/20 09:29:51;;;;;;;11.93;10.83;;;25.30;95.30;;;;;;4916975;29;20487;-93
2023/08/20 09:32:20;;;;;;;12.33;11.03;;;25.40;95.30;;;;;;4917035;29;20447;-89
2023/08/20 09:34:49;;;;;;;11.53;10.47;;;25.40;95.30;;;;;;4917118;29;20444;-88
2023/08/20 09:37:17;;;;;;;13.33;12.10;;;25.40;95.30;;;;;;4917183;29;20458;-88
2023/08/20 09:39:44;;;;;;;11.77;10.63;;;25.40;95.30;;;;;;4916889;29;20439;-88
2023/08/20 09:42:12;;;;;;;11.33;10.40;;;25.40;95.30;;;;;;4916904;29;20451;-89
2023/08/20 09:44:40;;;;;;;11.53;9.53;;;25.40;95.30;;;;;;4916865;29;20529;-93
2023/08/20 09:47:10;;;;;;;10.70;9.80;;;25.40;95.30;;;;;;4916920;29;20450;-89
2023/08/20 09:49:41;;;;;;;10.53;9.63;;;25.40;95.30;;;;;;4916918;29;20799;-88
2023/08/20 09:52:10;;;;;;;11.70;10.60;;;25.40;95.30;;;;;;4916963;29;20452;-89
2023/08/20 09:54:46;;;;;;;11.70;10.33;;;25.40;95.30;;;;;;4916878;29;20448;-88
2023/08/20 09:57:21;;;;;;;10.30;9.17;;;25.40;95.30;;;;;;4917104;29;20439;-89
2023/08/20 09:59:48;;;;;;;9.27;8.33;;;25.40;95.30;;;;;;4916858;29;20443;-89
2023/08/20 10:02:17;;;;;;;10.33;8.53;;;25.40;95.30;;;;;;4916883;29;20961;-89
2023/08/20 10:04:44;;;;;;;10.57;9.67;;;25.40;95.30;;;;;;4916859;29;20539;-92
2023/08/20 10:07:12;;;;;;;9.77;8.77;;;25.40;95.70;;;;;;4916884;29;20530;-89
2023/08/20 10:09:40;;;;;;;10.23;9.20;;;25.40;95.30;;;;;;4916843;29;20454;-93
2023/08/20 10:12:08;;;;;;;9.70;8.70;;;25.40;95.20;;;;;;4916732;29;20953;-92
2023/08/20 10:14:35;;;;;;;9.70;8.80;;;25.40;95.20;;;;;;4916407;29;20476;-89
2023/08/20 10:17:07;;;;;;;9.03;8.23;;;25.40;95.20;;;;;;4916757;29;20443;-89
2023/08/20 10:19:37;;;;;;;9.27;8.57;;;25.40;95.20;;;;;;4918440;29;20566;-92
2023/08/20 10:22:04;;;;;;;10.40;9.47;;;25.40;95.20;;;;;;4920244;29;20474;-89
2023/08/20 10:24:41;;;;;;;12.00;9.73;;;25.40;95.20;;;;;;4920385;29;20447;-88
2023/08/20 10:27:09;;;;;;;11.20;9.00;;;25.40;95.20;;;;;;4920316;29;20454;-89
2023/08/20 10:29:37;;;;;;;11.07;8.63;;;25.40;95.20;;;;;;4920076;29;20435;-89
2023/08/20 10:32:06;;;;;;;9.97;8.27;;;25.40;95.20;;;;;;4920109;29;20447;-89
2023/08/20 10:34:35;;;;;;;8.93;8.13;;;25.40;95.20;;;;;;4920031;29;20467;-89
2023/08/20 10:37:04;;;;;;;9.10;8.40;;;25.40;95.20;;;;;;4920281;29;20467;-93
2023/08/20 10:39:31;;;;;;;9.13;8.33;;;25.40;95.20;;;;;;4920521;29;20443;-90
2023/08/20 10:47:09;;;;;;;7.23;6.63;;;25.40;95.00;;;;;;4971908;23;20557;-95
2023/08/20 10:52:14;;;;;;;8.13;6.90;;;25.40;95.00;;;;;;4947747;23;20505;-95
2023/08/20 10:54:41;;;;;;;8.80;8.00;;;25.40;95.00;;;;;;4939700;29;20446;-93
2023/08/20 10:57:09;;;;;;;9.13;8.37;;;25.40;95.10;;;;;;4939481;29;20435;-94
2023/08/20 10:59:41;;;;;;;7.60;6.90;;;25.40;95.40;;;;;;4939265;29;20469;-93
2023/08/20 11:02:15;;;;;;;8.57;7.87;;;25.30;95.20;;;;;;4939959;29;20503;-94
2023/08/20 11:04:42;;;;;;;7.80;7.20;;;25.40;95.20;;;;;;4939107;29;20486;-95
2023/08/20 11:07:09;;;;;;;7.60;6.90;;;25.40;95.10;;;;;;4939166;29;20534;-95
2023/08/20 11:09:39;;;;;;;7.53;6.93;;;25.40;95.10;;;;;;4939179;29;20529;-93
2023/08/20 11:12:07;;;;;;;6.60;6.00;;;25.40;95.10;;;;;;4938747;29;20488;-93
2023/08/20 11:14:35;;;;;;;7.63;6.93;;;25.40;95.00;;;;;;4939442;29;20455;-94
2023/08/20 11:17:03;;;;;;;8.20;7.50;;;25.40;95.00;;;;;;4938964;29;20502;-95
2023/08/20 11:19:30;;;;;;;7.97;7.27;;;25.30;95.00;;;;;;4938564;29;20474;-93
2023/08/20 11:21:58;;;;;;;6.50;6.00;;;25.40;95.00;;;;;;4935742;29;20486;-94
2023/08/20 11:24:29;;;;;;;12.03;7.60;;;25.40;95.10;;;;;;4919910;29;20456;-94
2023/08/20 11:26:58;;;;;;;8.13;7.43;;;25.40;95.20;;;;;;4920880;29;20850;-93
2023/08/20 11:29:26;;;;;;;8.90;8.10;;;25.40;95.10;;;;;;4919863;29;21015;-87
2023/08/20 11:31:53;;;;;;;8.20;7.50;;;25.40;95.00;;;;;;4921139;29;20490;-88
2023/08/20 11:34:20;;;;;;;7.70;7.07;;;25.40;95.20;;;;;;4919310;29;20450;-88
2023/08/20 11:36:47;;;;;;;7.23;6.63;;;25.40;95.20;;;;;;4919131;29;20801;-88
2023/08/20 11:39:14;;;;;;;7.60;6.87;;;25.40;95.20;;;;;;4918988;29;20932;-93
2023/08/20 11:41:41;;;;;;;8.03;7.33;;;25.40;95.60;;;;;;4918953;29;20455;-88
2023/08/20 11:44:11;;;;;;;8.00;7.30;;;25.40;95.20;;;;;;4918861;29;20452;-88
2023/08/20 11:46:43;;;;;;;7.13;6.50;;;25.40;95.20;;;;;;4918861;29;20459;-88
2023/08/20 11:49:12;;;;;;;10.23;7.40;;;25.50;95.20;;;;;;4918980;29;20463;-89
2023/08/20 11:51:39;;;;;;;8.07;7.33;;;25.40;95.20;;;;;;4918882;29;21002;-89
2023/08/20 11:54:08;;;;;;;8.60;7.90;;;25.40;95.60;;;;;;4918718;29;20450;-93
2023/08/20 11:56:35;;;;;;;8.33;7.60;;;25.50;95.20;;;;;;4918699;29;20448;-88
2023/08/20 11:59:02;;;;;;;8.07;7.47;;;25.50;95.20;;;;;;4918579;29;20943;-88
2023/08/20 12:01:32;;;;;;;7.07;6.57;;;25.50;95.20;;;;;;4918639;29;20444;-88
2023/08/20 12:04:04;;;;;;;8.07;7.47;;;25.50;95.20;;;;;;4918557;29;20450;-88
2023/08/20 12:06:31;;;;;;;8.20;7.40;;;25.50;95.20;;;;;;4918560;29;20448;-88
2023/08/20 12:08:58;;;;;;;7.57;6.97;;;25.50;95.20;;;;;;4918533;29;20809;-88
2023/08/20 12:11:26;;;;;;;7.23;6.63;;;25.50;95.20;;;;;;4918526;29;20495;-88
2023/08/20 12:13:53;;;;;;;8.07;7.37;;;25.50;95.20;;;;;;4918517;29;20519;-89
2023/08/20 12:16:23;;;;;;;8.30;7.50;;;25.50;95.20;;;;;;4918298;29;20448;-88
2023/08/20 12:18:52;;;;;;;7.03;6.53;;;25.50;95.20;;;;;;4918166;29;20440;-93
2023/08/20 12:21:19;;;;;;;7.23;6.63;;;25.50;95.20;;;;;;4918245;29;20463;-88
2023/08/20 12:23:46;;;;;;;7.60;7.00;;;25.50;95.20;;;;;;4918238;29;20443;-88
2023/08/20 12:26:13;;;;;;;6.90;6.40;;;25.50;95.20;;;;;;4918395;29;20755;-88
2023/08/20 12:28:41;;;;;;;6.50;6.10;;;25.50;95.20;;;;;;4917986;29;20440;-88
2023/08/20 12:31:08;;;;;;;8.07;7.43;;;25.50;95.20;;;;;;4917969;29;20535;-88
2023/08/20 12:33:35;;;;;;;6.93;6.43;;;25.50;95.20;;;;;;4918077;29;20534;-93
2023/08/20 12:36:03;;;;;;;6.30;5.80;;;25.50;95.60;;;;;;4917923;29;20486;-88
2023/08/20 12:38:33;;;;;;;6.93;6.43;;;25.50;95.20;;;;;;4918060;29;20450;-88
2023/08/20 12:41:00;;;;;;;7.20;6.60;;;25.50;95.20;;;;;;4917683;29;20451;-88
2023/08/20 12:43:27;;;;;;;6.93;6.30;;;25.50;95.20;;;;;;4917479;29;20928;-93
2023/08/20 12:45:54;;;;;;;7.13;6.53;;;25.50;95.20;;;;;;4917862;29;20443;-88
2023/08/20 12:48:21;;;;;;;7.80;7.10;;;25.50;95.20;;;;;;4917899;29;20458;-93
2023/08/20 12:50:48;;;;;;;8.67;6.57;;;25.50;95.20;;;;;;4917435;29;20517;-89